createdAt,value
2022-07-31T00:03:08.477Z,59315.84
2022-07-31T00:09:49.076Z,59315.84
2022-07-31T00:15:35.624Z,59315.84
2022-07-31T00:21:40.519Z,59315.84
2022-07-31T00:27:44.346Z,59315.84
2022-07-31T00:33:47.913Z,59315.84
2022-07-31T00:39:54.442Z,59315.84
2022-07-31T00:45:59.488Z,59315.84
2022-07-31T00:52:03.172Z,59315.84
2022-07-31T00:58:08.130Z,59315.84
2022-07-31T01:04:15.412Z,59315.84
2022-07-31T01:10:30.945Z,59315.84
2022-07-31T01:16:40.163Z,59315.84
2022-07-31T01:22:59.221Z,59315.84
2022-07-31T01:29:11.627Z,59315.84
2022-07-31T01:35:19.066Z,59315.84
2022-07-31T01:41:27.394Z,59315.84
2022-07-31T01:47:34.570Z,59315.84
2022-07-31T01:53:39.599Z,59315.84
2022-07-31T01:59:44.864Z,59315.84
2022-07-31T02:05:52.749Z,59315.84
2022-07-31T02:11:57.102Z,59315.84
2022-07-31T02:18:02.109Z,59315.84
2022-07-31T02:24:07.750Z,59315.84
2022-07-31T02:30:12.562Z,59315.84
2022-07-31T02:36:18.691Z,59315.84
2022-07-31T02:42:24.032Z,59315.84
2022-07-31T02:48:29.377Z,59315.84
2022-07-31T02:54:33.324Z,59315.84
2022-07-31T03:00:38.135Z,59315.84
2022-07-31T03:06:41.722Z,59315.84
2022-07-31T03:12:47.556Z,59315.84
2022-07-31T03:18:54.157Z,59315.84
2022-07-31T03:24:57.858Z,59315.84
2022-07-31T03:31:01.450Z,59315.84
2022-07-31T03:37:06.399Z,59315.84
2022-07-31T03:43:10.023Z,59315.84
2022-07-31T03:49:14.321Z,59315.84
2022-07-31T03:55:19.362Z,59315.84
2022-07-31T04:01:23.606Z,59315.84
2022-07-31T04:07:27.869Z,59315.84
2022-07-31T04:13:32.866Z,59315.84
2022-07-31T04:19:36.455Z,59315.84
2022-07-31T04:25:40.050Z,59315.84
2022-07-31T04:31:45.048Z,59315.84
2022-07-31T04:37:48.751Z,59315.84
2022-07-31T04:43:52.303Z,59315.84
2022-07-31T04:49:57.248Z,59315.84
2022-07-31T04:56:20.673Z,59315.84
2022-07-31T05:02:24.257Z,59315.84
2022-07-31T05:08:31.148Z,59315.84
2022-07-31T05:14:34.797Z,59315.84
2022-07-31T05:20:38.363Z,59315.84
2022-07-31T05:26:43.342Z,59315.84
2022-07-31T05:32:46.907Z,59315.84
2022-07-31T05:38:50.505Z,59315.84
2022-07-31T05:44:55.465Z,59315.84
2022-07-31T05:51:04.922Z,59315.84
2022-07-31T05:57:08.995Z,59315.84
2022-07-31T06:03:14.386Z,59315.84
2022-07-31T06:09:17.943Z,59315.84
2022-07-31T06:15:21.750Z,59315.84
2022-07-31T06:21:30.621Z,59315.84
2022-07-31T06:27:35.040Z,59315.84
2022-07-31T06:33:39.017Z,59315.84
2022-07-31T06:39:55.752Z,59315.84
2022-07-31T06:46:00.028Z,59315.84
2022-07-31T06:52:04.964Z,59315.84
2022-07-31T06:58:10.813Z,59315.84
2022-07-31T07:04:14.556Z,59315.84
2022-07-31T07:10:24.212Z,59315.84
2022-07-31T07:16:29.251Z,59315.84
2022-07-31T07:22:32.920Z,59315.84
2022-07-31T07:28:36.980Z,59315.84
2022-07-31T07:34:41.902Z,59315.84
2022-07-31T07:40:45.964Z,59315.84
2022-07-31T07:46:49.610Z,59315.84
2022-07-31T07:52:55.258Z,59315.84
2022-07-31T07:58:58.878Z,59315.84
2022-07-31T08:05:02.861Z,59315.84
2022-07-31T08:11:07.812Z,59315.84
2022-07-31T08:17:13.230Z,101455.00
2022-07-31T08:23:18.156Z,101466.75
2022-07-31T08:29:27.446Z,101464.13
2022-07-31T08:35:32.742Z,101465.78
2022-07-31T08:41:39.212Z,101465.78
2022-07-31T08:47:48.201Z,101481.28
2022-07-31T08:53:52.877Z,59315.84
2022-07-31T08:59:56.506Z,59315.84
2022-07-31T09:06:01.462Z,59315.84
2022-07-31T09:12:05.359Z,101478.75
2022-07-31T09:18:18.736Z,101476.88
2022-07-31T09:24:31.542Z,101479.81
2022-07-31T09:30:56.474Z,101473.22
2022-07-31T09:37:09.440Z,101478.50
2022-07-31T09:43:19.383Z,101464.56
2022-07-31T09:49:31.839Z,101453.31
2022-07-31T09:55:36.013Z,101454.50
2022-07-31T10:01:41.591Z,101451.09
2022-07-31T10:07:46.964Z,101444.09
2022-07-31T10:13:55.084Z,101445.28
2022-07-31T10:20:04.320Z,101439.56
2022-07-31T10:26:07.988Z,101427.97
2022-07-31T10:32:11.597Z,101434.56
2022-07-31T10:38:24.027Z,101437.03
2022-07-31T10:44:38.495Z,101433.97
2022-07-31T10:50:42.687Z,101430.88
2022-07-31T10:56:48.349Z,101427.66
2022-07-31T11:02:51.933Z,101415.06
2022-07-31T11:08:56.007Z,101424.75
2022-07-31T11:15:02.976Z,101413.44
2022-07-31T11:21:37.229Z,101406.88
2022-07-31T11:27:35.353Z,101410.84
2022-07-31T11:33:43.888Z,101416.41
2022-07-31T11:39:51.612Z,101418.72
2022-07-31T11:45:57.289Z,101423.25
2022-07-31T11:52:05.662Z,101434.84
2022-07-31T11:58:11.907Z,101431.31
2022-07-31T12:04:19.692Z,101431.47
2022-07-31T12:10:25.269Z,101430.28
2022-07-31T12:16:28.909Z,101428.28
2022-07-31T12:22:32.739Z,101417.44
2022-07-31T12:28:37.677Z,101410.22
2022-07-31T12:34:42.909Z,101421.38
2022-07-31T12:40:48.439Z,101414.78
2022-07-31T12:46:53.460Z,101406.97
2022-07-31T12:53:01.305Z,101394.09
2022-07-31T12:59:05.626Z,101390.56
2022-07-31T13:05:15.912Z,101391.81
2022-07-31T13:11:19.552Z,101380.06
2022-07-31T13:17:22.916Z,101365.69
2022-07-31T13:23:28.111Z,101360.03
2022-07-31T13:29:31.652Z,101366.50
2022-07-31T13:35:35.112Z,101361.38
2022-07-31T13:41:40.267Z,101347.84
2022-07-31T13:47:51.837Z,101338.75
2022-07-31T13:53:56.059Z,101341.84
2022-07-31T14:00:00.803Z,101336.41
2022-07-31T14:06:04.541Z,101333.22
2022-07-31T14:12:10.394Z,101339.28
2022-07-31T14:18:18.771Z,101342.31
2022-07-31T14:24:22.952Z,101333.88
2022-07-31T14:30:27.127Z,101319.28
2022-07-31T14:36:32.033Z,101322.38
2022-07-31T14:42:35.616Z,101330.75
2022-07-31T14:48:39.182Z,101319.91
2022-07-31T14:54:43.917Z,101316.69
2022-07-31T15:00:48.169Z,101309.34
2022-07-31T15:07:03.014Z,101304.47
2022-07-31T15:13:17.362Z,101300.00
2022-07-31T15:19:20.920Z,101303.16
2022-07-31T15:25:24.308Z,101301.19
2022-07-31T15:31:29.330Z,101296.88
2022-07-31T15:37:35.356Z,101293.28
2022-07-31T15:43:39.204Z,101299.16
2022-07-31T15:49:46.372Z,101302.28
2022-07-31T15:55:49.937Z,101289.59
2022-07-31T16:01:53.335Z,101293.97
2022-07-31T16:08:29.942Z,101293.97
2022-07-31T16:14:22.359Z,101281.06
2022-07-31T16:20:27.564Z,101281.84
2022-07-31T16:26:33.447Z,101277.09
2022-07-31T16:32:37.141Z,101276.56
2022-07-31T16:38:41.980Z,59315.84
2022-07-31T16:44:47.182Z,59315.84
2022-07-31T16:50:53.305Z,59315.84
2022-07-31T16:56:58.384Z,59315.84
2022-07-31T17:03:03.448Z,59315.84
2022-07-31T17:09:16.962Z,59315.84
2022-07-31T17:15:22.539Z,59315.84
2022-07-31T17:21:30.983Z,59315.84
2022-07-31T17:27:35.219Z,59315.84
2022-07-31T17:33:59.426Z,59315.84
2022-07-31T17:40:21.581Z,59315.84
2022-07-31T17:46:36.469Z,59315.84
2022-07-31T17:52:47.642Z,59315.84
2022-07-31T17:58:52.936Z,59315.84
2022-07-31T18:04:56.927Z,59315.84
2022-07-31T18:11:03.343Z,59315.84
2022-07-31T18:17:15.753Z,59315.84
2022-07-31T18:23:19.324Z,59315.84
2022-07-31T18:29:23.345Z,59315.84
2022-07-31T18:35:28.415Z,59315.84
2022-07-31T18:41:34.160Z,59315.84
2022-07-31T18:47:38.098Z,59315.84
2022-07-31T18:53:44.552Z,59315.84
2022-07-31T18:59:53.035Z,59315.84
2022-07-31T19:05:56.881Z,59315.84
2022-07-31T19:12:10.083Z,59315.84
2022-07-31T19:18:14.247Z,101237.16
2022-07-31T19:24:19.567Z,101239.06
2022-07-31T19:30:26.746Z,101231.44
2022-07-31T19:36:31.175Z,101231.59
2022-07-31T19:42:34.953Z,101228.34
2022-07-31T19:48:41.156Z,101227.06
2022-07-31T19:54:45.599Z,101220.16
2022-07-31T20:00:49.788Z,101217.53
2022-07-31T20:06:56.287Z,101217.84
2022-07-31T20:12:59.956Z,101211.25
2022-07-31T20:19:04.641Z,101211.69
2022-07-31T20:25:20.013Z,101211.72
2022-07-31T20:31:25.571Z,101204.41
2022-07-31T20:37:30.697Z,101200.84
2022-07-31T20:43:35.727Z,101195.16
2022-07-31T20:49:41.136Z,101191.63
2022-07-31T20:55:47.145Z,101192.38
2022-07-31T21:01:52.279Z,101185.06
2022-07-31T21:07:56.639Z,101188.13
2022-07-31T21:14:00.372Z,101182.00
2022-07-31T21:20:08.394Z,101182.56
2022-07-31T21:26:12.093Z,101170.00
2022-07-31T21:32:16.398Z,101157.03
2022-07-31T21:38:22.445Z,101144.25
2022-07-31T21:44:26.391Z,101157.28
2022-07-31T21:50:30.806Z,101141.78
2022-07-31T21:56:35.499Z,101140.91
2022-07-31T22:02:39.062Z,101155.69
2022-07-31T22:08:42.583Z,101150.13
2022-07-31T22:14:47.942Z,101142.06
2022-07-31T22:20:51.971Z,101132.22
2022-07-31T22:27:16.599Z,101136.78
2022-07-31T22:33:21.731Z,101127.59
2022-07-31T22:39:26.508Z,101134.69
2022-07-31T22:45:30.405Z,101134.13
2022-07-31T22:51:38.435Z,101119.97
2022-07-31T22:57:45.101Z,101116.59
2022-07-31T23:03:48.772Z,101112.78
2022-07-31T23:09:53.743Z,101116.72
2022-07-31T23:15:57.261Z,101110.28
2022-07-31T23:22:03.329Z,101112.63
2022-07-31T23:28:08.244Z,101105.03
2022-07-31T23:34:11.510Z,101105.78
2022-07-31T23:40:15.064Z,101104.28
2022-07-31T23:46:20.010Z,101098.28
2022-07-31T23:52:30.435Z,101100.34
2022-07-31T23:58:34.114Z,101094.31
